Time;durP1;ratioP1;P1;durP2;ratioP2;P2;SDS_P1;SDS_P2;PMS_P1;PMS_P2;Temp;Humidity;BMP_temperature;BMP_pressure;BME280_temperature;BME280_humidity;BME280_pressure;Samples;Min_cycle;Max_cycle;Signal;HPM_P1;HPM_P2
2023/01/10 00:02:09;;;;;;;7.47;4.75;;;;;;;8.78;67.89;98472.62;7710229;32;37849;-87
2023/01/10 00:06:25;;;;;;;6.45;4.65;;;;;;;8.81;67.56;98479.34;7709653;32;39302;-87
2023/01/10 00:10:41;;;;;;;6.62;4.32;;;;;;;8.86;67.34;98471.13;7710509;32;40826;-87
2023/01/10 00:14:58;;;;;;;8.45;4.72;;;;;;;8.70;67.87;98472.44;7696293;32;37837;-87
2023/01/10 00:19:14;;;;;;;8.95;5.32;;;;;;;8.72;67.92;98470.25;7710360;32;37113;-87
2023/01/10 00:23:30;;;;;;;7.53;4.68;;;;;;;8.80;67.62;98480.47;7710062;32;38987;-86
2023/01/10 00:32:33;;;;;;;7.43;4.25;;;;;;;8.68;68.04;98480.09;7685977;32;38554;-87
2023/01/10 00:36:49;;;;;;;9.32;5.12;;;;;;;8.82;67.62;98480.97;7686581;32;37806;-87
2023/01/10 00:43:55;;;;;;;6.68;4.45;;;;;;;8.96;66.96;98484.59;7686472;32;40077;-87
2023/01/10 00:45:43;;;;;;;6.60;4.70;;;;;;;9.00;66.66;98477.47;7660181;32;40755;-87
2023/01/10 00:49:59;;;;;;;5.53;4.30;;;;;;;8.76;67.62;98477.53;7660041;32;37822;-87
2023/01/10 00:54:15;;;;;;;7.97;4.40;;;;;;;8.86;67.23;98479.28;7692184;32;38568;-87
2023/01/10 00:58:32;;;;;;;7.32;4.68;;;;;;;8.94;66.79;98477.84;7686078;32;40157;-87
2023/01/10 01:02:50;;;;;;;6.82;3.85;;;;;;;8.86;67.27;98471.13;7686437;32;39966;-87
2023/01/10 01:07:06;;;;;;;7.10;3.92;;;;;;;8.84;67.27;98473.34;7686201;32;38564;-87
2023/01/10 01:11:23;;;;;;;6.65;3.78;;;;;;;8.83;67.13;98472.53;7686250;32;37087;-88
2023/01/10 01:15:39;;;;;;;5.35;3.53;;;;;;;8.84;67.06;98484.22;7712003;32;39368;-87
2023/01/10 01:19:55;;;;;;;4.70;3.45;;;;;;;8.84;66.87;98485.00;7712857;32;39962;-86
2023/01/10 01:24:12;;;;;;;8.07;4.85;;;;;;;8.71;67.61;98487.62;7698032;32;37795;-87
2023/01/10 01:28:28;;;;;;;8.63;5.10;;;;;;;8.79;67.37;98487.00;7712645;32;37175;-87
2023/01/10 01:32:44;;;;;;;10.07;4.90;;;;;;;8.72;67.49;98475.69;7711954;32;39004;-88
2023/01/10 01:37:00;;;;;;;5.30;3.87;;;;;;;8.84;67.30;98474.16;7711950;32;39888;-87
2023/01/10 01:45:52;;;;;;;4.78;3.15;;;;;;;8.60;67.90;98466.03;7674415;32;37065;-86
2023/01/10 01:50:38;;;;;;;8.10;3.10;;;;;;;8.61;67.79;98464.94;7685800;32;39014;-86
2023/01/10 01:54:57;;;;;;;4.85;3.00;;;;;;;8.86;67.02;98465.69;7689560;32;39912;-87
2023/01/10 01:59:22;;;;;;;3.62;2.60;;;;;;;8.88;67.09;98463.50;7712326;32;37868;-87
2023/01/10 02:03:39;;;;;;;3.75;2.53;;;;;;;8.87;67.15;98471.97;7698391;32;37857;-87
2023/01/10 02:07:56;;;;;;;3.97;2.67;;;;;;;8.55;67.98;98476.97;7712213;32;40068;-87
2023/01/10 02:12:13;;;;;;;2.90;2.53;;;;;;;8.73;67.38;98472.69;7697946;32;39840;-88
2023/01/10 02:16:30;;;;;;;2.67;2.37;;;;;;;8.69;67.50;98468.09;7698495;32;38572;-86
2023/01/10 02:21:11;;;;;;;4.25;2.20;;;;;;;8.75;67.51;98472.38;7712029;32;37818;-87
2023/01/10 02:26:05;;;;;;;3.37;2.40;;;;;;;8.61;67.61;98470.38;7711432;32;39559;-86
2023/01/10 02:30:59;;;;;;;3.15;2.25;;;;;;;8.49;67.94;98478.13;7711637;32;40075;-87
2023/01/10 02:35:55;;;;;;;3.97;2.50;;;;;;;8.64;67.43;98491.53;7684427;32;37705;-87
2023/01/10 02:40:27;;;;;;;5.00;2.20;;;;;;;8.81;67.10;98490.22;7698163;32;37004;-87
2023/01/10 02:45:01;;;;;;;2.42;2.22;;;;;;;8.94;66.54;98492.22;7696910;32;39987;-87
2023/01/10 02:49:18;;;;;;;2.30;2.10;;;;;;;8.85;66.79;98491.28;7698913;32;39957;-87
2023/01/10 02:53:40;;;;;;;3.25;2.37;;;;;;;8.55;67.77;98498.69;7696093;32;37641;-87
2023/01/10 02:58:08;;;;;;;3.45;2.25;;;;;;;8.77;67.36;98500.06;7698213;32;37966;-87
2023/01/10 03:02:47;;;;;;;2.40;2.20;;;;;;;8.87;66.78;98489.06;7698823;32;39150;-87
2023/01/10 03:07:33;;;;;;;4.93;2.65;;;;;;;8.91;66.73;98498.25;7698778;32;41034;-87
2023/01/10 03:11:54;;;;;;;73.90;5.07;;;;;;;8.61;67.64;98502.97;7699555;32;37802;-88
2023/01/10 03:16:16;;;;;;;4.93;2.50;;;;;;;8.73;67.12;98507.19;7698051;32;37435;-87
2023/01/10 03:20:35;;;;;;;2.70;2.20;;;;;;;8.63;67.50;98511.62;7711496;32;39425;-87
2023/01/10 03:24:54;;;;;;;2.40;2.20;;;;;;;8.71;67.43;98514.81;7697495;32;40711;-87
2023/01/10 03:29:14;;;;;;;4.25;2.20;;;;;;;8.65;67.54;98512.16;7711327;32;38661;-88
2023/01/10 03:33:31;;;;;;;4.82;2.35;;;;;;;8.82;66.77;98521.75;7710561;32;36769;-87
2023/01/10 03:38:03;;;;;;;4.22;2.55;;;;;;;8.75;67.11;98524.03;7711206;32;39426;-87
2023/01/10 03:44:42;;;;;;;4.15;2.45;;;;;;;8.79;67.11;98535.91;7696801;32;39887;-87
2023/01/10 03:47:30;;;;;;;3.80;2.30;;;;;;;8.72;67.13;98530.03;7711025;32;38554;-87
2023/01/10 03:51:47;;;;;;;3.47;2.50;;;;;;;8.72;67.26;98519.97;7710985;32;37842;-87
2023/01/10 03:56:04;;;;;;;2.15;1.95;;;;;;;8.57;67.88;98534.56;7710373;32;39362;-88
2023/01/10 04:00:21;;;;;;;2.87;2.20;;;;;;;8.66;67.63;98534.72;7697069;32;40010;-87
2023/01/10 04:04:37;;;;;;;1.90;1.80;;;;;;;8.69;67.45;98530.59;7696271;32;37813;-86
2023/01/10 04:08:53;;;;;;;1.70;1.60;;;;;;;8.65;67.41;98530.37;7710742;32;37064;-87
2023/01/10 04:13:10;;;;;;;1.60;1.50;;;;;;;8.70;67.35;98529.50;7709334;32;40115;-86
2023/01/10 04:17:26;;;;;;;1.30;1.30;;;;;;;8.68;67.26;98535.22;7709727;32;41257;-86
2023/01/10 04:21:42;;;;;;;1.48;1.37;;;;;;;8.67;67.32;98549.09;7710291;32;37633;-86
2023/01/10 04:25:58;;;;;;;1.60;1.50;;;;;;;8.57;67.30;98558.16;7709806;32;36706;-86
2023/01/10 04:30:15;;;;;;;1.37;1.35;;;;;;;8.78;66.56;98562.28;7709893;32;39239;-86
2023/01/10 04:34:31;;;;;;;1.48;1.40;;;;;;;8.63;66.99;98576.84;7709757;32;39926;-87
2023/01/10 04:38:48;;;;;;;3.60;1.40;;;;;;;8.53;67.27;98560.66;7709801;32;37903;-86
2023/01/10 04:43:04;;;;;;;1.23;1.23;;;;;;;8.56;67.49;98553.84;7708930;32;37090;-86
2023/01/10 04:47:20;;;;;;;1.42;1.30;;;;;;;8.61;66.74;98532.88;7709612;32;39228;-87
2023/01/10 04:51:37;;;;;;;1.42;1.33;;;;;;;8.44;67.33;98562.38;7695868;32;40814;-87
2023/01/10 04:55:53;;;;;;;1.50;1.40;;;;;;;8.20;68.11;98554.97;7708733;32;38666;-86
2023/01/10 05:00:11;;;;;;;1.33;1.30;;;;;;;8.16;68.54;98561.25;7709319;32;36992;-86
2023/01/10 05:04:27;;;;;;;1.45;1.35;;;;;;;8.47;67.32;98569.97;7709078;32;39360;-86
2023/01/10 05:08:43;;;;;;;1.60;1.50;;;;;;;8.42;67.06;98580.84;7709131;32;39958;-87
2023/01/10 05:12:59;;;;;;;1.48;1.37;;;;;;;8.58;66.24;98584.25;7708536;32;39326;-88
2023/01/10 05:17:16;;;;;;;1.70;1.60;;;;;;;8.42;66.99;98597.16;7710517;32;37912;-88
2023/01/10 05:21:32;;;;;;;5.75;1.60;;;;;;;8.58;66.15;98601.34;7712908;32;39066;-88
2023/01/10 05:25:48;;;;;;;2.92;1.52;;;;;;;8.26;66.55;98616.31;7712339;32;40558;-90
2023/01/10 05:30:05;;;;;;;1.33;1.33;;;;;;;8.47;65.86;98621.56;7712338;32;38293;-87
2023/01/10 05:34:21;;;;;;;1.45;1.45;;;;;;;8.35;65.28;98637.41;7711316;32;37961;-87
2023/01/10 05:38:37;;;;;;;1.50;1.50;;;;;;;8.40;65.17;98654.47;7712627;32;39215;-87
2023/01/10 05:42:53;;;;;;;1.25;1.25;;;;;;;8.19;65.87;98658.44;7711827;32;40912;-86
2023/01/10 05:47:10;;;;;;;1.27;1.27;;;;;;;8.38;65.12;98661.25;7712430;32;37920;-88
2023/01/10 05:51:26;;;;;;;1.50;1.40;;;;;;;8.12;65.67;98664.19;7712379;32;36825;-88
2023/01/10 05:55:42;;;;;;;1.20;1.20;;;;;;;8.08;65.43;98663.12;7711818;32;39777;-88
2023/01/10 05:59:59;;;;;;;1.37;1.37;;;;;;;8.28;65.17;98668.41;7712247;32;40889;-88
2023/01/10 06:04:15;;;;;;;1.25;1.23;;;;;;;7.88;66.58;98680.34;7711297;32;37863;-87
2023/01/10 06:08:31;;;;;;;1.55;1.45;;;;;;;8.08;66.03;98676.72;7712234;32;36997;-86
2023/01/10 06:12:48;;;;;;;2.50;1.30;;;;;;;8.13;65.76;98681.31;7711223;32;40092;-86
2023/01/10 06:17:09;;;;;;;1.35;1.35;;;;;;;8.34;64.98;98673.81;7711956;32;40494;-87
2023/01/10 06:21:25;;;;;;;1.30;1.30;;;;;;;8.30;64.97;98675.47;7712090;32;38759;-86
2023/01/10 06:25:41;;;;;;;1.20;1.20;;;;;;;8.26;65.01;98692.34;7711462;32;37043;-87
2023/01/10 06:30:00;;;;;;;1.60;1.45;;;;;;;8.23;64.91;98709.19;7711899;32;40007;-87
2023/01/10 06:34:16;;;;;;;1.40;1.30;;;;;;;8.05;65.64;98717.97;7711108;32;39221;-87
2023/01/10 06:38:33;;;;;;;1.60;1.50;;;;;;;7.99;65.69;98729.97;7711708;32;39117;-87
2023/01/10 06:42:49;;;;;;;1.58;1.48;;;;;;;8.06;65.45;98733.19;7711253;32;37152;-86
2023/01/10 06:47:05;;;;;;;1.65;1.55;;;;;;;7.98;65.54;98740.00;7711863;32;39212;-88
2023/01/10 06:51:21;;;;;;;1.50;1.40;;;;;;;7.69;66.32;98761.59;7711278;32;39824;-88
2023/01/10 06:55:38;;;;;;;1.70;1.60;;;;;;;7.73;66.17;98754.53;7711620;32;38661;-87
2023/01/10 06:59:54;;;;;;;2.00;1.80;;;;;;;8.02;65.09;98761.97;7710864;32;37819;-87
2023/01/10 07:04:10;;;;;;;4.00;2.60;;;;;;;7.81;65.53;98772.94;7710934;32;39795;-87
2023/01/10 07:08:26;;;;;;;12.13;6.40;;;;;;;7.75;66.58;98790.34;7711534;32;40474;-87
2023/01/10 07:12:43;;;;;;;5.18;2.90;;;;;;;7.76;65.19;98797.41;7711174;32;37847;-87
2023/01/10 07:16:59;;;;;;;3.37;2.65;;;;;;;7.62;65.43;98813.44;7711289;32;37158;-87
2023/01/10 07:21:16;;;;;;;7.28;4.75;;;;;;;7.85;65.17;98820.13;7711246;32;39352;-87
2023/01/10 07:25:33;;;;;;;2.25;2.05;;;;;;;7.88;65.66;98822.31;7706461;32;150923;-87
2023/01/10 07:29:49;;;;;;;2.78;1.50;;;;;;;7.57;65.96;98839.75;7710192;32;38747;-88
2023/01/10 07:34:05;;;;;;;2.47;1.77;;;;;;;6.96;67.69;98844.16;7709439;32;37752;-86
2023/01/10 07:38:22;;;;;;;2.00;1.90;;;;;;;7.45;66.24;98856.31;7708748;32;39316;-87
2023/01/10 07:42:38;;;;;;;1.80;1.70;;;;;;;7.58;65.62;98860.38;7710651;32;40115;-87
2023/01/10 07:46:54;;;;;;;1.60;1.40;;;;;;;7.59;65.70;98864.69;7710904;32;37521;-87
2023/01/10 07:51:10;;;;;;;1.60;1.50;;;;;;;7.56;65.55;98873.41;7711640;32;36703;-86
2023/01/10 07:55:27;;;;;;;1.60;1.50;;;;;;;7.47;65.52;98881.28;7697109;32;40049;-87
2023/01/10 07:59:44;;;;;;;1.40;1.40;;;;;;;7.32;66.17;98887.53;7707050;32;39973;-87
2023/01/10 08:04:00;;;;;;;1.62;1.50;;;;;;;7.11;66.41;98917.34;7707697;32;37878;-87
2023/01/10 08:08:16;;;;;;;1.45;1.45;;;;;;;7.19;66.08;98926.81;7710312;32;37597;-88
2023/01/10 08:12:33;;;;;;;2.90;1.73;;;;;;;7.26;66.25;98931.97;7705329;32;39335;-87
2023/01/10 08:16:49;;;;;;;1.65;1.55;;;;;;;7.24;66.75;98942.28;7708718;32;39985;-87
2023/01/10 08:21:05;;;;;;;1.45;1.42;;;;;;;7.18;66.45;98960.47;7708419;32;37796;-87
2023/01/10 08:25:22;;;;;;;1.70;1.60;;;;;;;7.29;66.64;98972.13;7718665;32;37989;-87
2023/01/10 08:29:38;;;;;;;1.60;1.50;;;;;;;7.31;66.36;98980.78;7735048;32;39502;-87
2023/01/10 08:33:55;;;;;;;2.42;1.60;;;;;;;7.36;66.14;98998.97;7708092;32;39663;-86
2023/01/10 08:38:11;;;;;;;1.70;1.60;;;;;;;7.23;66.57;99014.69;7709204;32;38620;-76
2023/01/10 08:42:28;;;;;;;1.67;1.50;;;;;;;7.40;68.17;99028.00;7708403;32;37107;-88
2023/01/10 08:46:44;;;;;;;1.70;1.60;;;;;;;7.49;66.66;99034.50;7709062;32;39745;-85
2023/01/10 08:51:08;;;;;;;1.60;1.50;;;;;;;7.57;66.01;99048.63;7708716;32;40066;-87
2023/01/10 08:55:25;;;;;;;1.75;1.60;;;;;;;7.39;66.18;99064.31;7713069;32;39467;-87
2023/01/10 08:59:42;;;;;;;1.50;1.45;;;;;;;7.30;66.81;99079.50;7711839;32;37136;-87
2023/01/10 09:03:58;;;;;;;1.55;1.45;;;;;;;7.33;66.96;99092.53;7713119;32;39354;-87
2023/01/10 09:08:14;;;;;;;3.35;1.60;;;;;;;7.30;66.60;99087.63;7712910;32;39892;-87
2023/01/10 09:17:06;;;;;;;1.80;1.70;;;;;;;7.15;66.38;99118.22;7709595;32;37063;-87
2023/01/10 09:21:22;;;;;;;1.55;1.48;;;;;;;6.98;67.68;99123.84;7710638;32;38967;-87
2023/01/10 09:25:38;;;;;;;1.67;1.58;;;;;;;7.21;66.82;99143.44;7710029;32;41195;-86
2023/01/10 09:29:55;;;;;;;2.20;1.67;;;;;;;7.27;65.90;99147.81;7688136;32;38566;-86
2023/01/10 09:34:11;;;;;;;1.40;1.40;;;;;;;7.02;66.99;99157.47;7712647;32;37198;-89
2023/01/10 09:38:27;;;;;;;2.45;1.70;;;;;;;6.95;66.58;99168.56;7698060;32;40254;-87
2023/01/10 09:43:07;;;;;;;1.73;1.62;;;;;;;7.23;65.92;99169.22;7686399;32;40013;-87
2023/01/10 09:47:32;;;;;;;2.00;1.80;;;;;;;7.05;65.42;99178.59;7695700;32;37868;-86
2023/01/10 09:51:50;;;;;;;2.50;1.80;;;;;;;7.10;66.14;99181.34;7698096;32;36810;-89
2023/01/10 09:56:07;;;;;;;1.70;1.60;;;;;;;7.24;65.80;99191.72;7697865;32;38450;-88
2023/01/10 10:00:47;;;;;;;1.73;1.55;;;;;;;7.14;65.46;99187.09;7698749;32;39992;-88
2023/01/10 10:05:25;;;;;;;2.72;1.70;;;;;;;7.14;65.84;99198.72;7711839;32;37848;-87
2023/01/10 10:09:42;;;;;;;5.18;2.20;;;;;;;7.32;65.56;99193.94;7712168;32;37001;-85
2023/01/10 10:14:22;;;;;;;7.22;4.75;;;;;;;7.12;67.34;99200.91;7698436;32;40623;-86
2023/01/10 10:18:39;;;;;;;6.97;3.30;;;;;;;7.02;68.67;99206.25;7700032;32;40015;-87
2023/01/10 10:23:13;;;;;;;10.18;3.47;;;;;;;7.37;67.12;99206.69;7710284;32;38625;-87
2023/01/10 10:27:57;;;;;;;8.88;3.30;;;;;;;7.17;68.13;99193.84;7711659;32;38130;-87
2023/01/10 10:32:26;;;;;;;;;;;;;;;7.53;66.99;99201.03;7692049;32;39337;-87
2023/01/10 10:36:54;;;;;;;2.40;1.62;;;;;;;7.55;66.74;99202.69;7695983;32;39996;-87
2023/01/10 10:41:21;;;;;;;1.70;1.60;;;;;;;7.48;67.07;99209.16;7675325;32;37456;-85
2023/01/10 10:45:45;;;;;;;1.62;1.52;;;;;;;7.53;67.08;99206.47;7691058;32;36768;-86
2023/01/10 10:50:14;;;;;;;1.75;1.65;;;;;;;7.69;66.69;99209.22;7674297;32;39367;-86
2023/01/10 10:54:34;;;;;;;1.67;1.58;;;;;;;7.56;67.05;99209.75;7684731;32;40556;-86
2023/01/10 10:58:54;;;;;;;1.80;1.70;;;;;;;7.71;65.80;99217.94;7686930;32;37483;-88
2023/01/10 11:03:56;;;;;;;1.40;1.40;;;;;;;7.63;66.31;99229.31;7693008;32;37490;-86
2023/01/10 11:08:18;;;;;;;1.55;1.50;;;;;;;7.51;66.92;99240.38;7659894;32;40121;-87
2023/01/10 11:12:37;;;;;;;1.60;1.50;;;;;;;7.57;67.36;99238.50;7674304;32;40040;-86
2023/01/10 11:16:53;;;;;;;2.28;1.70;;;;;;;7.42;67.62;99239.28;7683862;32;37863;-86
2023/01/10 11:21:13;;;;;;;1.62;1.50;;;;;;;7.53;67.54;99249.06;7685409;32;37134;-86
2023/01/10 11:25:29;;;;;;;1.80;1.70;;;;;;;7.57;67.94;99261.03;7678832;32;38908;-86
2023/01/10 11:29:49;;;;;;;1.60;1.50;;;;;;;7.64;67.19;99267.03;7709394;32;40753;-85
2023/01/10 11:34:15;;;;;;;1.60;1.50;;;;;;;7.78;66.54;99266.50;7702641;32;37870;-86
2023/01/10 11:38:33;;;;;;;1.50;1.40;;;;;;;7.70;67.10;99276.00;7698406;32;37045;-86
2023/01/10 11:42:51;;;;;;;8.93;3.50;;;;;;;7.56;66.51;99275.66;7710169;32;39518;-86
2023/01/10 11:47:13;;;;;;;4.60;2.37;;;;;;;7.55;67.63;99278.66;7697136;32;39894;-86
2023/01/10 11:51:39;;;;;;;5.72;3.33;;;;;;;7.49;68.06;99297.59;7698413;32;36208;-87
2023/01/10 11:55:55;;;;;;;2.20;1.77;;;;;;;7.83;66.60;99297.22;7673696;32;37774;-89
2023/01/10 12:00:12;;;;;;;2.10;1.70;;;;;;;7.66;67.09;99310.97;7687467;32;39146;-87
2023/01/10 12:04:31;;;;;;;1.60;1.50;;;;;;;7.72;67.05;99318.03;7710071;32;39612;-87
2023/01/10 12:08:54;;;;;;;1.90;1.80;;;;;;;7.75;67.11;99330.28;7696990;32;37836;-86
2023/01/10 12:13:15;;;;;;;3.12;2.10;;;;;;;7.59;67.34;99325.84;7709984;32;37043;-86
2023/01/10 12:17:34;;;;;;;3.92;2.50;;;;;;;7.48;67.63;99323.09;7709775;32;39432;-89
2023/01/10 12:21:54;;;;;;;2.55;1.90;;;;;;;7.75;66.92;99330.28;7696655;32;40586;-88
2023/01/10 12:26:12;;;;;;;3.65;2.25;;;;;;;7.89;66.46;99344.19;7713213;32;38635;-87
2023/01/10 12:30:42;;;;;;;3.00;2.03;;;;;;;7.96;66.78;99333.09;7705645;32;36398;-77
2023/01/10 12:35:05;;;;;;;2.05;1.90;;;;;;;8.06;67.74;99344.78;7718944;32;40047;-83
2023/01/10 12:39:25;;;;;;;1.62;1.52;;;;;;;7.98;67.59;99353.44;7705336;32;40745;-83
2023/01/10 12:48:29;;;;;;;1.70;1.60;;;;;;;8.17;66.45;99361.13;7718552;32;37064;-83
2023/01/10 12:52:55;;;;;;;2.00;1.90;;;;;;;8.16;66.59;99368.47;7717838;32;39414;-83
2023/01/10 12:57:37;;;;;;;1.90;1.80;;;;;;;8.05;66.25;99373.03;7716836;32;41314;-83
2023/01/10 13:02:03;;;;;;;2.00;1.80;;;;;;;8.11;66.10;99379.31;7706096;32;37498;-84
2023/01/10 13:06:39;;;;;;;1.95;1.85;;;;;;;7.82;67.18;99382.41;7704761;32;37087;-84
2023/01/10 13:10:58;;;;;;;1.92;1.75;;;;;;;7.85;66.56;99392.75;7704974;32;39389;-83
2023/01/10 13:15:40;;;;;;;2.00;1.80;;;;;;;7.90;66.19;99400.94;7704345;32;40028;-83
2023/01/10 13:20:16;;;;;;;1.75;1.65;;;;;;;7.89;66.21;99399.28;7704955;32;37951;-83
2023/01/10 13:24:32;;;;;;;2.75;1.87;;;;;;;7.91;66.32;99396.31;7717651;32;38231;-84
2023/01/10 13:28:57;;;;;;;3.37;2.17;;;;;;;7.94;65.95;99400.41;7704257;32;39012;-84
2023/01/10 13:33:21;;;;;;;2.85;2.08;;;;;;;7.67;67.21;99404.03;7717468;32;39855;-83
2023/01/10 13:37:39;;;;;;;1.92;1.83;;;;;;;7.92;66.27;99411.53;7715007;32;37847;-84
2023/01/10 13:46:41;;;;;;;1.95;1.80;;;;;;;8.05;65.42;99426.50;7712589;32;40134;-84
2023/01/10 13:51:27;;;;;;;2.08;1.73;;;;;;;7.80;65.78;99448.91;7699779;32;39985;-83
2023/01/10 13:55:52;;;;;;;3.28;2.17;;;;;;;7.75;66.08;99457.81;7712236;32;37385;-83
2023/01/10 14:05:17;;;;;;;3.87;1.95;;;;;;;7.93;66.12;99474.75;7712284;32;39349;-83
2023/01/10 14:09:43;;;;;;;2.53;2.08;;;;;;;7.83;66.20;99468.19;7698691;32;38623;-83
2023/01/10 14:14:01;;;;;;;3.53;1.90;;;;;;;7.55;66.98;99485.63;7712302;32;37777;-84
2023/01/10 14:18:25;;;;;;;2.70;1.92;;;;;;;7.84;66.02;99488.81;7698537;32;37142;-83
2023/01/10 14:22:57;;;;;;;3.03;2.22;;;;;;;7.72;66.91;99488.19;7711828;32;39363;-83
2023/01/10 14:27:16;;;;;;;2.10;1.90;;;;;;;7.73;66.76;99489.84;7696616;32;40730;-83
2023/01/10 14:31:35;;;;;;;2.40;2.20;;;;;;;7.48;67.04;99496.69;7696741;32;37544;-84
2023/01/10 14:35:55;;;;;;;2.03;1.92;;;;;;;7.65;66.56;99496.53;7697942;32;37504;-83
2023/01/10 14:40:24;;;;;;;1.85;1.75;;;;;;;7.51;67.34;99507.00;7696828;32;40130;-85
2023/01/10 14:44:47;;;;;;;2.92;2.10;;;;;;;7.56;66.68;99511.69;7711219;32;40541;-84
2023/01/10 14:49:34;;;;;;;2.12;2.00;;;;;;;7.69;66.16;99511.25;7709362;32;38513;-84
2023/01/10 14:54:24;;;;;;;2.45;2.05;;;;;;;7.59;66.55;99534.75;7710343;32;37796;-84
2023/01/10 14:58:40;;;;;;;3.85;2.10;;;;;;;7.52;66.95;99537.69;7701629;32;39800;-84
2023/01/10 15:03:02;;;;;;;3.15;2.30;;;;;;;7.37;67.23;99542.97;7711490;32;39105;-84
2023/01/10 15:07:21;;;;;;;4.05;2.20;;;;;;;7.67;66.11;99555.97;7711280;32;38768;-85
2023/01/10 15:11:38;;;;;;;3.78;2.10;;;;;;;7.61;66.08;99565.97;7710787;32;37130;-84
2023/01/10 15:15:55;;;;;;;3.15;2.53;;;;;;;7.42;67.07;99564.72;7710383;32;39814;-85
2023/01/10 15:20:18;;;;;;;3.12;2.35;;;;;;;7.32;67.68;99565.44;7710410;32;40975;-84
2023/01/10 15:24:36;;;;;;;3.00;2.50;;;;;;;7.21;67.92;99572.66;7714548;32;37437;-84
2023/01/10 15:29:09;;;;;;;2.55;2.12;;;;;;;7.43;67.43;99569.88;7737684;32;37669;-84
2023/01/10 15:33:29;;;;;;;3.40;2.45;;;;;;;7.37;67.41;99575.53;7737520;32;39454;-84
2023/01/10 15:37:54;;;;;;;3.15;2.47;;;;;;;7.34;66.83;99582.25;7724323;32;39949;-84
2023/01/10 15:42:11;;;;;;;;;;;;;;;7.29;66.79;99591.16;7723998;32;38645;-84
2023/01/10 15:46:27;;;;;;;2.78;2.08;;;;;;;7.46;66.32;99607.34;7738228;32;37312;-84
2023/01/10 15:51:03;;;;;;;4.25;2.25;;;;;;;7.44;65.82;99616.81;7737043;32;39409;-84
2023/01/10 15:55:37;;;;;;;3.53;2.42;;;;;;;7.69;65.13;99621.66;7737711;32;40743;-84
2023/01/10 15:59:54;;;;;;;2.90;2.60;;;;;;;7.83;63.82;99633.75;7736801;32;38460;-85
2023/01/10 16:04:13;;;;;;;3.05;2.20;;;;;;;7.61;65.58;99643.84;7736797;32;37099;-85
2023/01/10 16:08:34;;;;;;;4.43;2.12;;;;;;;7.91;63.69;99648.75;7737347;32;39389;-84
2023/01/10 16:17:25;;;;;;;2.17;1.98;;;;;;;7.56;64.93;99655.47;7737190;32;37895;-84
2023/01/10 16:21:49;;;;;;;3.17;2.33;;;;;;;7.98;64.17;99662.09;7736375;32;37138;-85
2023/01/10 16:26:07;;;;;;;;;;;;;;;8.11;63.31;99672.53;7723619;32;39312;-83
2023/01/10 16:30:27;;;;;;;2.25;2.05;;;;;;;7.99;63.58;99669.19;7736867;32;40251;-84
2023/01/10 16:34:44;;;;;;;4.22;2.00;;;;;;;7.84;62.71;99664.41;7736339;32;38552;-85
2023/01/10 16:39:15;;;;;;;3.75;2.10;;;;;;;7.56;65.74;99670.94;7736468;32;37730;-85
2023/01/10 16:43:31;;;;;;;2.40;2.15;;;;;;;7.63;64.11;99688.63;7736028;32;39419;-85
2023/01/10 16:47:47;;;;;;;2.70;1.90;;;;;;;7.40;65.89;99692.44;7735883;32;39898;-85
2023/01/10 16:52:03;;;;;;;2.65;2.00;;;;;;;7.69;63.85;99682.19;7736123;32;37825;-84
2023/01/10 16:56:25;;;;;;;3.20;2.28;;;;;;;7.74;63.64;99694.16;7735331;32;37109;-84
2023/01/10 17:00:44;;;;;;;3.00;2.22;;;;;;;7.53;62.54;99686.63;7735947;32;39356;-85
2023/01/10 17:05:00;;;;;;;3.97;2.40;;;;;;;7.45;62.61;99699.81;7735296;32;39191;-84
2023/01/10 17:09:22;;;;;;;2.28;2.00;;;;;;;6.77;65.22;99710.84;7735514;32;37510;-84
2023/01/10 17:13:41;;;;;;;4.32;2.85;;;;;;;7.02;62.11;99704.97;7723579;32;37627;-85
2023/01/10 17:17:58;;;;;;;3.03;2.60;;;;;;;7.07;65.38;99732.16;7712847;32;40160;-85
2023/01/10 17:22:15;;;;;;;6.57;3.40;;;;;;;7.22;65.01;99725.28;7739554;32;40933;-86
2023/01/10 17:26:34;;;;;;;3.65;2.50;;;;;;;6.72;65.08;99727.84;7738648;32;37869;-86
2023/01/10 17:30:51;;;;;;;3.50;2.80;;;;;;;6.79;65.15;99743.13;7725517;32;37002;-85
2023/01/10 17:35:08;;;;;;;3.65;2.97;;;;;;;6.62;66.26;99743.94;7724981;32;40105;-85
2023/01/10 17:39:25;;;;;;;5.07;3.03;;;;;;;7.17;64.24;99738.78;7738899;32;39996;-85
2023/01/10 17:43:42;;;;;;;6.75;3.30;;;;;;;6.77;65.51;99752.31;7739195;32;39437;-85
2023/01/10 17:47:58;;;;;;;6.40;3.50;;;;;;;7.36;64.26;99747.44;7738539;32;36749;-85
2023/01/10 17:52:16;;;;;;;6.40;4.00;;;;;;;7.48;63.91;99759.78;7739270;32;38979;-85
2023/01/10 17:56:32;;;;;;;4.87;3.20;;;;;;;7.24;64.35;99766.53;7738420;32;40622;-85
2023/01/10 18:00:49;;;;;;;4.65;3.10;;;;;;;6.92;64.67;99775.31;7738850;32;37862;-85
2023/01/10 18:05:05;;;;;;;6.40;3.28;;;;;;;7.00;64.36;99774.88;7738447;32;37015;-85
2023/01/10 18:09:22;;;;;;;4.68;3.03;;;;;;;7.19;64.04;99794.38;7738588;32;40906;-84
2023/01/10 18:13:39;;;;;;;3.47;2.80;;;;;;;6.68;64.98;99808.00;7739060;32;40033;-85
2023/01/10 18:17:55;;;;;;;6.80;3.47;;;;;;;7.31;63.37;99797.00;7737989;32;37867;-86
2023/01/10 18:26:47;;;;;;;4.90;3.25;;;;;;;7.15;63.57;99802.19;7737995;32;39022;-85
2023/01/10 18:31:04;;;;;;;5.37;3.20;;;;;;;7.33;63.30;99813.88;7738225;32;40881;-85
2023/01/10 18:35:21;;;;;;;6.78;3.87;;;;;;;7.19;63.28;99816.06;7738749;32;37826;-85
2023/01/10 18:39:37;;;;;;;7.10;3.53;;;;;;;7.08;63.87;99814.31;7737783;32;37833;-85
2023/01/10 18:43:53;;;;;;;7.37;3.67;;;;;;;7.14;63.29;99807.91;7738226;32;39999;-84
2023/01/10 18:48:10;;;;;;;4.05;2.90;;;;;;;7.39;62.98;99796.56;7736952;32;40001;-86
2023/01/10 18:52:27;;;;;;;6.93;3.80;;;;;;;6.99;64.32;99807.66;7738509;32;37887;-85
2023/01/10 18:56:43;;;;;;;5.40;3.30;;;;;;;7.25;63.41;99801.53;7738392;32;37825;-85
2023/01/10 19:01:17;;;;;;;5.68;3.65;;;;;;;6.77;64.79;99811.91;7738497;32;39345;-85
2023/01/10 19:05:33;;;;;;;9.35;4.10;;;;;;;7.10;63.42;99818.41;7738519;32;39965;-86
2023/01/10 19:09:49;;;;;;;6.87;3.87;;;;;;;7.02;63.98;99832.38;7738256;32;37839;-86
2023/01/10 19:14:06;;;;;;;7.80;3.80;;;;;;;6.81;64.54;99835.81;7731086;32;37118;-85
2023/01/10 19:18:22;;;;;;;5.80;3.37;;;;;;;6.93;64.39;99831.97;7709546;32;39226;-84
2023/01/10 19:22:38;;;;;;;6.32;3.60;;;;;;;6.74;64.12;99838.69;7711314;32;39792;-85
2023/01/10 19:26:58;;;;;;;6.47;3.70;;;;;;;6.98;64.00;99841.25;7710750;32;38660;-84
2023/01/10 19:31:22;;;;;;;6.37;3.25;;;;;;;6.50;65.42;99848.84;7711254;32;37585;-86
2023/01/10 19:35:39;;;;;;;7.70;3.78;;;;;;;6.65;64.59;99857.25;7709933;32;39004;-84
2023/01/10 19:39:56;;;;;;;4.85;2.97;;;;;;;6.54;64.69;99861.66;7711207;32;40919;-85
2023/01/10 19:44:14;;;;;;;5.72;3.17;;;;;;;6.45;65.13;99867.69;7711078;32;37476;-85
2023/01/10 19:48:32;;;;;;;8.55;3.10;;;;;;;6.58;64.53;99862.81;7710343;32;36065;-85
2023/01/10 19:52:51;;;;;;;4.72;2.97;;;;;;;6.28;65.04;99856.81;7711019;32;39276;-83
2023/01/10 19:57:10;;;;;;;5.32;3.28;;;;;;;6.84;63.87;99870.56;7709910;32;41405;-84
2023/01/10 20:01:30;;;;;;;9.07;3.83;;;;;;;6.98;62.53;99866.47;7710191;32;37545;-83
2023/01/10 20:05:46;;;;;;;8.30;3.80;;;;;;;6.64;63.43;99877.28;7710331;32;36794;-84
2023/01/10 20:10:03;;;;;;;7.10;3.87;;;;;;;6.67;63.52;99886.78;7696939;32;40189;-84
2023/01/10 20:14:20;;;;;;;5.68;3.75;;;;;;;6.85;62.93;99885.78;7710272;32;39917;-86
2023/01/10 20:18:37;;;;;;;5.18;3.72;;;;;;;6.59;63.73;99893.44;7709777;32;38636;-86
2023/01/10 20:22:54;;;;;;;5.93;3.75;;;;;;;6.51;63.58;99893.81;7710057;32;35667;-85
2023/01/10 20:27:10;;;;;;;6.90;3.72;;;;;;;6.81;62.95;99900.84;7709064;32;38998;-85
2023/01/10 20:31:27;;;;;;;6.10;4.30;;;;;;;6.62;63.78;99906.47;7710455;32;40022;-86
2023/01/10 20:35:52;;;;;;;5.87;3.53;;;;;;;6.47;63.50;99904.31;7709659;32;37823;-84
2023/01/10 20:40:10;;;;;;;6.75;4.37;;;;;;;6.47;63.54;99914.31;7709715;32;37117;-86
2023/01/10 20:44:28;;;;;;;7.80;4.28;;;;;;;6.48;63.16;99921.38;7709607;32;40146;-85
2023/01/10 20:48:46;;;;;;;6.53;3.85;;;;;;;6.33;63.71;99922.75;7711846;32;39915;-86
2023/01/10 20:53:03;;;;;;;9.13;4.35;;;;;;;6.87;62.22;99930.53;7712962;32;36892;-85
2023/01/10 20:57:19;;;;;;;9.95;3.80;;;;;;;6.74;62.67;99928.94;7712547;32;37241;-86
2023/01/10 21:01:35;;;;;;;6.78;3.70;;;;;;;6.74;62.69;99931.66;7712871;32;39281;-86
2023/01/10 21:05:53;;;;;;;5.80;3.85;;;;;;;6.81;62.45;99941.50;7711847;32;39918;-85
2023/01/10 21:10:09;;;;;;;6.25;3.90;;;;;;;6.92;62.44;99946.06;7698958;32;38023;-86
2023/01/10 21:14:27;;;;;;;9.88;4.85;;;;;;;7.12;60.93;99949.13;7712400;32;37841;-86
2023/01/10 21:18:43;;;;;;;8.23;4.70;;;;;;;6.90;61.56;99950.91;7709715;32;40002;-86